Terminal Aerodrome Forecast
Issued by NWS

Home | Current Version | Previous Version | Text Only | Print | Product List | Glossary Off
Versions: 1 2 3 4 5 6 7 8 9 10 11 12 13 14 15 16 17 18 19 20 21 22 23 24

599
FTUS43 KLOT 202113 AAA
TAFORD
TAF AMD
KORD 202113Z 2021/2124 09010KT P6SM SCT250
     FM210200 07004KT P6SM BKN200
     FM211000 07003KT P6SM SCT080 BKN100
     FM212000 06008KT P6SM BKN080=

USA.gov is the U.S. government's official web portal to all federal, state and local government web resources and services.